sensor_id;sensor_type;location;lat;lon;timestamp;P1;durP1;ratioP1;P2;durP2;ratioP2
2464;SDS011;1244;54.326;10.074;2023-04-06T00:01:21;0.50;;;0.50;;
2464;SDS011;1244;54.326;10.074;2023-04-06T00:03:46;0.50;;;0.50;;
2464;SDS011;1244;54.326;10.074;2023-04-06T00:06:12;0.40;;;0.40;;
2464;SDS011;1244;54.326;10.074;2023-04-06T00:08:38;0.40;;;0.40;;
2464;SDS011;1244;54.326;10.074;2023-04-06T00:11:03;0.50;;;0.50;;
2464;SDS011;1244;54.326;10.074;2023-04-06T00:13:29;0.40;;;0.40;;
2464;SDS011;1244;54.326;10.074;2023-04-06T00:15:54;0.50;;;0.50;;
2464;SDS011;1244;54.326;10.074;2023-04-06T00:18:20;0.50;;;0.50;;
2464;SDS011;1244;54.326;10.074;2023-04-06T00:20:45;0.40;;;0.40;;
2464;SDS011;1244;54.326;10.074;2023-04-06T00:23:11;0.50;;;0.50;;
2464;SDS011;1244;54.326;10.074;2023-04-06T00:25:36;0.40;;;0.40;;
2464;SDS011;1244;54.326;10.074;2023-04-06T00:28:02;0.50;;;0.50;;
2464;SDS011;1244;54.326;10.074;2023-04-06T00:30:28;0.50;;;0.50;;
2464;SDS011;1244;54.326;10.074;2023-04-06T00:32:54;0.50;;;0.50;;
2464;SDS011;1244;54.326;10.074;2023-04-06T00:35:19;0.50;;;0.50;;
2464;SDS011;1244;54.326;10.074;2023-04-06T00:37:46;0.50;;;0.50;;
2464;SDS011;1244;54.326;10.074;2023-04-06T00:40:13;0.50;;;0.50;;
2464;SDS011;1244;54.326;10.074;2023-04-06T00:42:39;0.40;;;0.40;;
2464;SDS011;1244;54.326;10.074;2023-04-06T00:45:04;0.50;;;0.50;;
2464;SDS011;1244;54.326;10.074;2023-04-06T00:47:30;0.60;;;0.60;;
2464;SDS011;1244;54.326;10.074;2023-04-06T00:49:56;0.40;;;0.40;;
2464;SDS011;1244;54.326;10.074;2023-04-06T00:52:21;0.50;;;0.50;;
2464;SDS011;1244;54.326;10.074;2023-04-06T00:54:48;0.50;;;0.50;;
2464;SDS011;1244;54.326;10.074;2023-04-06T00:57:14;0.50;;;0.50;;
2464;SDS011;1244;54.326;10.074;2023-04-06T00:59:40;0.50;;;0.50;;
2464;SDS011;1244;54.326;10.074;2023-04-06T01:02:06;0.50;;;0.50;;
2464;SDS011;1244;54.326;10.074;2023-04-06T01:04:32;0.50;;;0.50;;
2464;SDS011;1244;54.326;10.074;2023-04-06T01:06:58;0.50;;;0.50;;
2464;SDS011;1244;54.326;10.074;2023-04-06T01:09:23;0.50;;;0.50;;
2464;SDS011;1244;54.326;10.074;2023-04-06T01:11:49;0.50;;;0.50;;
2464;SDS011;1244;54.326;10.074;2023-04-06T01:14:14;0.60;;;0.60;;
2464;SDS011;1244;54.326;10.074;2023-04-06T01:16:40;0.50;;;0.50;;
2464;SDS011;1244;54.326;10.074;2023-04-06T01:19:12;0.50;;;0.50;;
2464;SDS011;1244;54.326;10.074;2023-04-06T01:21:38;0.53;;;0.53;;
2464;SDS011;1244;54.326;10.074;2023-04-06T01:24:05;0.60;;;0.60;;
2464;SDS011;1244;54.326;10.074;2023-04-06T01:26:32;0.57;;;0.57;;
2464;SDS011;1244;54.326;10.074;2023-04-06T01:28:58;0.50;;;0.50;;
2464;SDS011;1244;54.326;10.074;2023-04-06T01:31:24;0.40;;;0.40;;
2464;SDS011;1244;54.326;10.074;2023-04-06T01:33:51;0.60;;;0.60;;
2464;SDS011;1244;54.326;10.074;2023-04-06T01:36:17;0.50;;;0.50;;
2464;SDS011;1244;54.326;10.074;2023-04-06T01:38:42;0.50;;;0.50;;
2464;SDS011;1244;54.326;10.074;2023-04-06T01:41:08;0.50;;;0.50;;
2464;SDS011;1244;54.326;10.074;2023-04-06T01:43:34;0.50;;;0.50;;
2464;SDS011;1244;54.326;10.074;2023-04-06T01:45:59;0.50;;;0.50;;
2464;SDS011;1244;54.326;10.074;2023-04-06T01:48:25;0.50;;;0.50;;
2464;SDS011;1244;54.326;10.074;2023-04-06T01:50:51;0.60;;;0.60;;
2464;SDS011;1244;54.326;10.074;2023-04-06T01:53:17;0.50;;;0.50;;
2464;SDS011;1244;54.326;10.074;2023-04-06T01:55:43;0.50;;;0.50;;
2464;SDS011;1244;54.326;10.074;2023-04-06T01:58:08;0.50;;;0.50;;
2464;SDS011;1244;54.326;10.074;2023-04-06T02:00:34;0.50;;;0.50;;
2464;SDS011;1244;54.326;10.074;2023-04-06T02:02:59;0.47;;;0.47;;
2464;SDS011;1244;54.326;10.074;2023-04-06T02:05:25;0.60;;;0.60;;
2464;SDS011;1244;54.326;10.074;2023-04-06T02:07:51;0.47;;;0.47;;
2464;SDS011;1244;54.326;10.074;2023-04-06T02:10:16;0.50;;;0.50;;
2464;SDS011;1244;54.326;10.074;2023-04-06T02:12:42;0.50;;;0.50;;
2464;SDS011;1244;54.326;10.074;2023-04-06T02:15:08;0.50;;;0.50;;
2464;SDS011;1244;54.326;10.074;2023-04-06T02:17:34;0.40;;;0.40;;
2464;SDS011;1244;54.326;10.074;2023-04-06T02:19:59;0.50;;;0.50;;
2464;SDS011;1244;54.326;10.074;2023-04-06T02:22:25;0.50;;;0.50;;
2464;SDS011;1244;54.326;10.074;2023-04-06T02:24:50;0.50;;;0.50;;
2464;SDS011;1244;54.326;10.074;2023-04-06T02:27:16;0.50;;;0.50;;
2464;SDS011;1244;54.326;10.074;2023-04-06T02:29:41;0.50;;;0.50;;
2464;SDS011;1244;54.326;10.074;2023-04-06T02:32:07;0.60;;;0.60;;
2464;SDS011;1244;54.326;10.074;2023-04-06T02:34:32;0.60;;;0.60;;
2464;SDS011;1244;54.326;10.074;2023-04-06T02:36:58;0.50;;;0.50;;
2464;SDS011;1244;54.326;10.074;2023-04-06T02:39:23;0.53;;;0.53;;
2464;SDS011;1244;54.326;10.074;2023-04-06T02:41:49;0.57;;;0.57;;
2464;SDS011;1244;54.326;10.074;2023-04-06T02:44:14;0.60;;;0.60;;
2464;SDS011;1244;54.326;10.074;2023-04-06T02:46:44;0.50;;;0.50;;
2464;SDS011;1244;54.326;10.074;2023-04-06T02:49:10;0.60;;;0.60;;
2464;SDS011;1244;54.326;10.074;2023-04-06T02:51:36;0.40;;;0.40;;
2464;SDS011;1244;54.326;10.074;2023-04-06T02:54:01;0.50;;;0.50;;
2464;SDS011;1244;54.326;10.074;2023-04-06T02:56:27;0.60;;;0.60;;
2464;SDS011;1244;54.326;10.074;2023-04-06T02:58:52;0.60;;;0.60;;
2464;SDS011;1244;54.326;10.074;2023-04-06T03:01:18;0.57;;;0.57;;
2464;SDS011;1244;54.326;10.074;2023-04-06T03:03:43;0.57;;;0.57;;
2464;SDS011;1244;54.326;10.074;2023-04-06T03:06:09;0.50;;;0.50;;
2464;SDS011;1244;54.326;10.074;2023-04-06T03:08:35;0.60;;;0.60;;
2464;SDS011;1244;54.326;10.074;2023-04-06T03:11:00;0.50;;;0.50;;
2464;SDS011;1244;54.326;10.074;2023-04-06T03:13:26;0.60;;;0.60;;
2464;SDS011;1244;54.326;10.074;2023-04-06T03:15:51;0.50;;;0.50;;
2464;SDS011;1244;54.326;10.074;2023-04-06T03:18:20;0.60;;;0.60;;
2464;SDS011;1244;54.326;10.074;2023-04-06T03:20:47;0.50;;;0.50;;
2464;SDS011;1244;54.326;10.074;2023-04-06T03:23:13;0.50;;;0.50;;
2464;SDS011;1244;54.326;10.074;2023-04-06T03:25:38;0.50;;;0.50;;
2464;SDS011;1244;54.326;10.074;2023-04-06T03:28:04;0.60;;;0.60;;
2464;SDS011;1244;54.326;10.074;2023-04-06T03:30:30;0.47;;;0.47;;
2464;SDS011;1244;54.326;10.074;2023-04-06T03:32:55;0.50;;;0.50;;
2464;SDS011;1244;54.326;10.074;2023-04-06T03:35:21;0.60;;;0.60;;
2464;SDS011;1244;54.326;10.074;2023-04-06T03:37:46;0.47;;;0.47;;
2464;SDS011;1244;54.326;10.074;2023-04-06T03:40:12;0.50;;;0.50;;
2464;SDS011;1244;54.326;10.074;2023-04-06T03:42:37;0.60;;;0.60;;
2464;SDS011;1244;54.326;10.074;2023-04-06T03:45:03;0.60;;;0.60;;
2464;SDS011;1244;54.326;10.074;2023-04-06T03:47:29;0.50;;;0.50;;
2464;SDS011;1244;54.326;10.074;2023-04-06T03:49:54;0.50;;;0.50;;
2464;SDS011;1244;54.326;10.074;2023-04-06T03:52:22;0.60;;;0.60;;
2464;SDS011;1244;54.326;10.074;2023-04-06T03:54:48;0.60;;;0.60;;
2464;SDS011;1244;54.326;10.074;2023-04-06T03:57:14;0.70;;;0.70;;
2464;SDS011;1244;54.326;10.074;2023-04-06T03:59:39;0.60;;;0.60;;
2464;SDS011;1244;54.326;10.074;2023-04-06T04:02:05;0.50;;;0.50;;
2464;SDS011;1244;54.326;10.074;2023-04-06T04:04:30;0.60;;;0.60;;
2464;SDS011;1244;54.326;10.074;2023-04-06T04:06:56;0.60;;;0.60;;
2464;SDS011;1244;54.326;10.074;2023-04-06T04:09:21;0.50;;;0.50;;
2464;SDS011;1244;54.326;10.074;2023-04-06T04:11:47;0.60;;;0.60;;
2464;SDS011;1244;54.326;10.074;2023-04-06T04:14:13;0.60;;;0.60;;
2464;SDS011;1244;54.326;10.074;2023-04-06T04:16:38;0.60;;;0.60;;
2464;SDS011;1244;54.326;10.074;2023-04-06T04:19:04;0.50;;;0.50;;
2464;SDS011;1244;54.326;10.074;2023-04-06T04:21:31;0.60;;;0.60;;
2464;SDS011;1244;54.326;10.074;2023-04-06T04:23:56;0.60;;;0.60;;
2464;SDS011;1244;54.326;10.074;2023-04-06T04:26:22;0.60;;;0.60;;
2464;SDS011;1244;54.326;10.074;2023-04-06T04:28:47;0.70;;;0.70;;
2464;SDS011;1244;54.326;10.074;2023-04-06T04:31:13;0.50;;;0.50;;
2464;SDS011;1244;54.326;10.074;2023-04-06T04:33:39;0.50;;;0.50;;
2464;SDS011;1244;54.326;10.074;2023-04-06T04:36:05;0.60;;;0.60;;
2464;SDS011;1244;54.326;10.074;2023-04-06T04:38:30;0.40;;;0.40;;
2464;SDS011;1244;54.326;10.074;2023-04-06T04:40:56;0.50;;;0.50;;
2464;SDS011;1244;54.326;10.074;2023-04-06T04:43:21;0.60;;;0.60;;
2464;SDS011;1244;54.326;10.074;2023-04-06T04:45:47;0.53;;;0.53;;
2464;SDS011;1244;54.326;10.074;2023-04-06T04:48:12;0.50;;;0.50;;
2464;SDS011;1244;54.326;10.074;2023-04-06T04:50:38;0.60;;;0.60;;
2464;SDS011;1244;54.326;10.074;2023-04-06T04:53:03;0.53;;;0.53;;
2464;SDS011;1244;54.326;10.074;2023-04-06T04:55:32;0.50;;;0.50;;
2464;SDS011;1244;54.326;10.074;2023-04-06T04:57:57;0.50;;;0.50;;
2464;SDS011;1244;54.326;10.074;2023-04-06T05:00:23;0.50;;;0.50;;
2464;SDS011;1244;54.326;10.074;2023-04-06T05:02:48;0.60;;;0.60;;
2464;SDS011;1244;54.326;10.074;2023-04-06T05:05:14;0.50;;;0.50;;
2464;SDS011;1244;54.326;10.074;2023-04-06T05:07:40;0.60;;;0.60;;
2464;SDS011;1244;54.326;10.074;2023-04-06T05:10:05;0.60;;;0.60;;
2464;SDS011;1244;54.326;10.074;2023-04-06T05:12:31;0.50;;;0.50;;
2464;SDS011;1244;54.326;10.074;2023-04-06T05:14:57;0.53;;;0.53;;
2464;SDS011;1244;54.326;10.074;2023-04-06T05:17:22;0.60;;;0.60;;
2464;SDS011;1244;54.326;10.074;2023-04-06T05:19:48;0.60;;;0.60;;
2464;SDS011;1244;54.326;10.074;2023-04-06T05:22:14;0.50;;;0.50;;
2464;SDS011;1244;54.326;10.074;2023-04-06T05:24:42;0.53;;;0.53;;
2464;SDS011;1244;54.326;10.074;2023-04-06T05:27:08;0.60;;;0.60;;
2464;SDS011;1244;54.326;10.074;2023-04-06T05:29:33;0.50;;;0.50;;
2464;SDS011;1244;54.326;10.074;2023-04-06T05:31:59;0.60;;;0.60;;
2464;SDS011;1244;54.326;10.074;2023-04-06T05:34:24;0.50;;;0.50;;
2464;SDS011;1244;54.326;10.074;2023-04-06T05:36:50;0.50;;;0.50;;
2464;SDS011;1244;54.326;10.074;2023-04-06T05:39:16;0.40;;;0.40;;
2464;SDS011;1244;54.326;10.074;2023-04-06T05:41:41;0.30;;;0.30;;
2464;SDS011;1244;54.326;10.074;2023-04-06T05:44:06;0.57;;;0.57;;
2464;SDS011;1244;54.326;10.074;2023-04-06T05:46:32;0.50;;;0.50;;
2464;SDS011;1244;54.326;10.074;2023-04-06T05:48:58;0.50;;;0.50;;
2464;SDS011;1244;54.326;10.074;2023-04-06T05:51:23;0.40;;;0.40;;
2464;SDS011;1244;54.326;10.074;2023-04-06T05:53:49;0.57;;;0.57;;
2464;SDS011;1244;54.326;10.074;2023-04-06T05:56:15;0.50;;;0.50;;
2464;SDS011;1244;54.326;10.074;2023-04-06T05:58:41;0.50;;;0.50;;
2464;SDS011;1244;54.326;10.074;2023-04-06T06:01:06;0.30;;;0.30;;
2464;SDS011;1244;54.326;10.074;2023-04-06T06:03:33;0.60;;;0.60;;
2464;SDS011;1244;54.326;10.074;2023-04-06T06:06:00;0.50;;;0.50;;
2464;SDS011;1244;54.326;10.074;2023-04-06T06:08:26;0.50;;;0.50;;
2464;SDS011;1244;54.326;10.074;2023-04-06T06:10:52;0.50;;;0.50;;
2464;SDS011;1244;54.326;10.074;2023-04-06T06:13:18;0.43;;;0.43;;
2464;SDS011;1244;54.326;10.074;2023-04-06T06:15:43;0.50;;;0.50;;
2464;SDS011;1244;54.326;10.074;2023-04-06T06:18:10;0.40;;;0.40;;
2464;SDS011;1244;54.326;10.074;2023-04-06T06:20:35;0.40;;;0.40;;
2464;SDS011;1244;54.326;10.074;2023-04-06T06:23:01;0.50;;;0.50;;
2464;SDS011;1244;54.326;10.074;2023-04-06T06:25:27;0.50;;;0.50;;
2464;SDS011;1244;54.326;10.074;2023-04-06T06:27:55;0.50;;;0.50;;
2464;SDS011;1244;54.326;10.074;2023-04-06T06:30:21;0.50;;;0.50;;
2464;SDS011;1244;54.326;10.074;2023-04-06T06:32:46;0.50;;;0.50;;
2464;SDS011;1244;54.326;10.074;2023-04-06T06:35:12;0.50;;;0.50;;
2464;SDS011;1244;54.326;10.074;2023-04-06T06:37:38;0.50;;;0.50;;
2464;SDS011;1244;54.326;10.074;2023-04-06T06:40:03;0.40;;;0.40;;
2464;SDS011;1244;54.326;10.074;2023-04-06T06:42:29;0.50;;;0.50;;
2464;SDS011;1244;54.326;10.074;2023-04-06T06:44:55;0.43;;;0.43;;
2464;SDS011;1244;54.326;10.074;2023-04-06T06:47:21;0.47;;;0.47;;
2464;SDS011;1244;54.326;10.074;2023-04-06T06:49:46;0.50;;;0.50;;
2464;SDS011;1244;54.326;10.074;2023-04-06T06:52:12;0.50;;;0.50;;
2464;SDS011;1244;54.326;10.074;2023-04-06T06:54:37;0.47;;;0.47;;
2464;SDS011;1244;54.326;10.074;2023-04-06T06:57:03;0.30;;;0.30;;
2464;SDS011;1244;54.326;10.074;2023-04-06T06:59:28;0.40;;;0.40;;
2464;SDS011;1244;54.326;10.074;2023-04-06T07:01:54;0.30;;;0.30;;
2464;SDS011;1244;54.326;10.074;2023-04-06T07:04:20;0.43;;;0.43;;
2464;SDS011;1244;54.326;10.074;2023-04-06T07:06:45;0.40;;;0.40;;
2464;SDS011;1244;54.326;10.074;2023-04-06T07:09:11;0.40;;;0.40;;
2464;SDS011;1244;54.326;10.074;2023-04-06T07:11:36;0.40;;;0.40;;
2464;SDS011;1244;54.326;10.074;2023-04-06T07:14:02;0.40;;;0.40;;
2464;SDS011;1244;54.326;10.074;2023-04-06T07:16:27;0.47;;;0.47;;
2464;SDS011;1244;54.326;10.074;2023-04-06T07:18:53;0.40;;;0.40;;
2464;SDS011;1244;54.326;10.074;2023-04-06T07:21:18;0.40;;;0.40;;
2464;SDS011;1244;54.326;10.074;2023-04-06T07:23:44;0.40;;;0.40;;
2464;SDS011;1244;54.326;10.074;2023-04-06T07:26:10;0.40;;;0.40;;
2464;SDS011;1244;54.326;10.074;2023-04-06T07:28:35;0.40;;;0.40;;
2464;SDS011;1244;54.326;10.074;2023-04-06T07:31:02;0.30;;;0.30;;
2464;SDS011;1244;54.326;10.074;2023-04-06T07:33:28;0.33;;;0.33;;
2464;SDS011;1244;54.326;10.074;2023-04-06T07:35:55;0.30;;;0.30;;
2464;SDS011;1244;54.326;10.074;2023-04-06T07:38:21;0.30;;;0.30;;
2464;SDS011;1244;54.326;10.074;2023-04-06T07:40:47;0.40;;;0.40;;
2464;SDS011;1244;54.326;10.074;2023-04-06T07:43:12;0.40;;;0.40;;
2464;SDS011;1244;54.326;10.074;2023-04-06T07:45:38;0.30;;;0.30;;
2464;SDS011;1244;54.326;10.074;2023-04-06T07:48:03;0.30;;;0.30;;
2464;SDS011;1244;54.326;10.074;2023-04-06T07:50:29;0.30;;;0.30;;
2464;SDS011;1244;54.326;10.074;2023-04-06T07:52:55;0.30;;;0.30;;
2464;SDS011;1244;54.326;10.074;2023-04-06T07:55:20;0.30;;;0.30;;
2464;SDS011;1244;54.326;10.074;2023-04-06T07:57:46;0.30;;;0.30;;
2464;SDS011;1244;54.326;10.074;2023-04-06T08:00:12;0.30;;;0.30;;
2464;SDS011;1244;54.326;10.074;2023-04-06T08:02:38;0.30;;;0.30;;
2464;SDS011;1244;54.326;10.074;2023-04-06T08:05:04;0.30;;;0.30;;
2464;SDS011;1244;54.326;10.074;2023-04-06T08:07:30;0.20;;;0.20;;
2464;SDS011;1244;54.326;10.074;2023-04-06T08:09:56;0.30;;;0.30;;
2464;SDS011;1244;54.326;10.074;2023-04-06T08:12:21;0.30;;;0.30;;
2464;SDS011;1244;54.326;10.074;2023-04-06T08:14:47;0.30;;;0.30;;
2464;SDS011;1244;54.326;10.074;2023-04-06T08:17:13;0.30;;;0.30;;
2464;SDS011;1244;54.326;10.074;2023-04-06T08:19:38;0.30;;;0.30;;
2464;SDS011;1244;54.326;10.074;2023-04-06T08:22:04;0.30;;;0.30;;
2464;SDS011;1244;54.326;10.074;2023-04-06T08:24:29;0.30;;;0.30;;
2464;SDS011;1244;54.326;10.074;2023-04-06T08:26:58;0.30;;;0.30;;
2464;SDS011;1244;54.326;10.074;2023-04-06T08:29:23;0.30;;;0.30;;
2464;SDS011;1244;54.326;10.074;2023-04-06T08:31:49;0.30;;;0.30;;
2464;SDS011;1244;54.326;10.074;2023-04-06T08:34:14;0.30;;;0.30;;
2464;SDS011;1244;54.326;10.074;2023-04-06T08:36:41;0.30;;;0.30;;
2464;SDS011;1244;54.326;10.074;2023-04-06T08:39:07;0.30;;;0.30;;
2464;SDS011;1244;54.326;10.074;2023-04-06T08:41:32;0.30;;;0.30;;
2464;SDS011;1244;54.326;10.074;2023-04-06T08:43:59;0.30;;;0.30;;
2464;SDS011;1244;54.326;10.074;2023-04-06T08:46:26;0.30;;;0.30;;
2464;SDS011;1244;54.326;10.074;2023-04-06T08:48:55;0.30;;;0.30;;
2464;SDS011;1244;54.326;10.074;2023-04-06T08:51:25;0.30;;;0.30;;
2464;SDS011;1244;54.326;10.074;2023-04-06T08:53:52;0.20;;;0.20;;
2464;SDS011;1244;54.326;10.074;2023-04-06T08:56:21;0.30;;;0.30;;
2464;SDS011;1244;54.326;10.074;2023-04-06T08:58:48;0.20;;;0.20;;
2464;SDS011;1244;54.326;10.074;2023-04-06T09:01:14;0.30;;;0.30;;
2464;SDS011;1244;54.326;10.074;2023-04-06T09:03:41;0.20;;;0.20;;
2464;SDS011;1244;54.326;10.074;2023-04-06T09:06:07;0.30;;;0.30;;
2464;SDS011;1244;54.326;10.074;2023-04-06T09:08:34;0.20;;;0.20;;
2464;SDS011;1244;54.326;10.074;2023-04-06T09:11:02;0.20;;;0.20;;
2464;SDS011;1244;54.326;10.074;2023-04-06T09:13:28;0.30;;;0.30;;
2464;SDS011;1244;54.326;10.074;2023-04-06T09:16:01;0.20;;;0.20;;
2464;SDS011;1244;54.326;10.074;2023-04-06T09:18:28;0.20;;;0.20;;
2464;SDS011;1244;54.326;10.074;2023-04-06T09:21:04;0.20;;;0.20;;
2464;SDS011;1244;54.326;10.074;2023-04-06T09:23:31;0.20;;;0.20;;
2464;SDS011;1244;54.326;10.074;2023-04-06T09:28:50;0.20;;;0.20;;
2464;SDS011;1244;54.326;10.074;2023-04-06T09:31:28;0.20;;;0.20;;
2464;SDS011;1244;54.326;10.074;2023-04-06T09:33:56;0.20;;;0.20;;
2464;SDS011;1244;54.326;10.074;2023-04-06T09:36:32;0.20;;;0.20;;
2464;SDS011;1244;54.326;10.074;2023-04-06T09:38:59;0.20;;;0.20;;
2464;SDS011;1244;54.326;10.074;2023-04-06T09:41:32;0.20;;;0.20;;
2464;SDS011;1244;54.326;10.074;2023-04-06T09:44:10;0.20;;;0.20;;
2464;SDS011;1244;54.326;10.074;2023-04-06T09:46:43;0.20;;;0.20;;
2464;SDS011;1244;54.326;10.074;2023-04-06T09:49:10;0.20;;;0.20;;
2464;SDS011;1244;54.326;10.074;2023-04-06T09:54:03;0.20;;;0.20;;
2464;SDS011;1244;54.326;10.074;2023-04-06T09:59:37;0.20;;;0.20;;
2464;SDS011;1244;54.326;10.074;2023-04-06T10:02:05;0.20;;;0.20;;
2464;SDS011;1244;54.326;10.074;2023-04-06T10:04:40;0.20;;;0.20;;
2464;SDS011;1244;54.326;10.074;2023-04-06T10:07:09;0.20;;;0.20;;
2464;SDS011;1244;54.326;10.074;2023-04-06T10:09:42;0.20;;;0.20;;
2464;SDS011;1244;54.326;10.074;2023-04-06T10:12:10;0.20;;;0.20;;
2464;SDS011;1244;54.326;10.074;2023-04-06T10:14:36;0.20;;;0.20;;
2464;SDS011;1244;54.326;10.074;2023-04-06T10:17:06;0.20;;;0.20;;
2464;SDS011;1244;54.326;10.074;2023-04-06T10:19:46;0.10;;;0.10;;
2464;SDS011;1244;54.326;10.074;2023-04-06T10:22:29;0.20;;;0.20;;
2464;SDS011;1244;54.326;10.074;2023-04-06T10:25:03;0.20;;;0.20;;
2464;SDS011;1244;54.326;10.074;2023-04-06T10:27:29;0.20;;;0.20;;
2464;SDS011;1244;54.326;10.074;2023-04-06T10:30:00;0.10;;;0.10;;
2464;SDS011;1244;54.326;10.074;2023-04-06T10:32:34;0.10;;;0.10;;
2464;SDS011;1244;54.326;10.074;2023-04-06T10:35:04;0.10;;;0.10;;
2464;SDS011;1244;54.326;10.074;2023-04-06T10:40:32;0.10;;;0.10;;
2464;SDS011;1244;54.326;10.074;2023-04-06T10:43:08;0.10;;;0.10;;
2464;SDS011;1244;54.326;10.074;2023-04-06T10:45:38;0.10;;;0.10;;
2464;SDS011;1244;54.326;10.074;2023-04-06T10:48:18;0.10;;;0.10;;
2464;SDS011;1244;54.326;10.074;2023-04-06T10:50:45;0.10;;;0.10;;
2464;SDS011;1244;54.326;10.074;2023-04-06T10:53:25;0.10;;;0.10;;
2464;SDS011;1244;54.326;10.074;2023-04-06T10:55:55;0.10;;;0.10;;
2464;SDS011;1244;54.326;10.074;2023-04-06T10:58:25;0.10;;;0.10;;
2464;SDS011;1244;54.326;10.074;2023-04-06T11:00:51;0.10;;;0.10;;
2464;SDS011;1244;54.326;10.074;2023-04-06T11:03:17;0.00;;;0.00;;
2464;SDS011;1244;54.326;10.074;2023-04-06T11:05:47;0.10;;;0.10;;
2464;SDS011;1244;54.326;10.074;2023-04-06T11:08:27;0.00;;;0.00;;
2464;SDS011;1244;54.326;10.074;2023-04-06T11:11:07;0.00;;;0.00;;
2464;SDS011;1244;54.326;10.074;2023-04-06T11:16:20;0.00;;;0.00;;
2464;SDS011;1244;54.326;10.074;2023-04-06T11:18:52;0.00;;;0.00;;
2464;SDS011;1244;54.326;10.074;2023-04-06T11:21:32;0.00;;;0.00;;
2464;SDS011;1244;54.326;10.074;2023-04-06T11:24:06;0.00;;;0.00;;
2464;SDS011;1244;54.326;10.074;2023-04-06T11:26:36;0.00;;;0.00;;
2464;SDS011;1244;54.326;10.074;2023-04-06T11:29:02;0.00;;;0.00;;
2464;SDS011;1244;54.326;10.074;2023-04-06T11:31:28;0.10;;;0.10;;
2464;SDS011;1244;54.326;10.074;2023-04-06T11:34:16;0.10;;;0.10;;
2464;SDS011;1244;54.326;10.074;2023-04-06T11:36:42;0.10;;;0.10;;
2464;SDS011;1244;54.326;10.074;2023-04-06T11:39:08;0.10;;;0.10;;
2464;SDS011;1244;54.326;10.074;2023-04-06T11:41:35;0.00;;;0.00;;
2464;SDS011;1244;54.326;10.074;2023-04-06T11:44:01;0.10;;;0.10;;
2464;SDS011;1244;54.326;10.074;2023-04-06T11:46:30;0.10;;;0.10;;
2464;SDS011;1244;54.326;10.074;2023-04-06T11:48:59;0.10;;;0.10;;
2464;SDS011;1244;54.326;10.074;2023-04-06T11:51:26;0.10;;;0.10;;
2464;SDS011;1244;54.326;10.074;2023-04-06T11:53:52;0.10;;;0.10;;
2464;SDS011;1244;54.326;10.074;2023-04-06T11:58:50;0.10;;;0.10;;
2464;SDS011;1244;54.326;10.074;2023-04-06T12:01:16;0.10;;;0.10;;
2464;SDS011;1244;54.326;10.074;2023-04-06T12:03:41;0.10;;;0.10;;
2464;SDS011;1244;54.326;10.074;2023-04-06T12:06:08;0.10;;;0.10;;
2464;SDS011;1244;54.326;10.074;2023-04-06T12:08:33;0.10;;;0.10;;
2464;SDS011;1244;54.326;10.074;2023-04-06T12:10:59;0.10;;;0.10;;
2464;SDS011;1244;54.326;10.074;2023-04-06T12:13:25;0.10;;;0.10;;
2464;SDS011;1244;54.326;10.074;2023-04-06T12:15:52;0.10;;;0.00;;
2464;SDS011;1244;54.326;10.074;2023-04-06T12:18:18;0.10;;;0.00;;
2464;SDS011;1244;54.326;10.074;2023-04-06T12:20:44;0.10;;;0.10;;
2464;SDS011;1244;54.326;10.074;2023-04-06T12:23:10;0.10;;;0.00;;
2464;SDS011;1244;54.326;10.074;2023-04-06T12:25:36;0.10;;;0.10;;
2464;SDS011;1244;54.326;10.074;2023-04-06T12:28:06;0.10;;;0.10;;
2464;SDS011;1244;54.326;10.074;2023-04-06T12:30:33;0.10;;;0.00;;
2464;SDS011;1244;54.326;10.074;2023-04-06T12:32:59;0.10;;;0.10;;
2464;SDS011;1244;54.326;10.074;2023-04-06T12:35:26;0.10;;;0.00;;
2464;SDS011;1244;54.326;10.074;2023-04-06T12:37:52;0.10;;;0.10;;
2464;SDS011;1244;54.326;10.074;2023-04-06T12:40:18;0.10;;;0.00;;
2464;SDS011;1244;54.326;10.074;2023-04-06T12:42:45;0.10;;;0.00;;
2464;SDS011;1244;54.326;10.074;2023-04-06T12:45:12;0.10;;;0.00;;
2464;SDS011;1244;54.326;10.074;2023-04-06T12:47:37;0.10;;;0.00;;
2464;SDS011;1244;54.326;10.074;2023-04-06T12:50:04;0.10;;;0.00;;
2464;SDS011;1244;54.326;10.074;2023-04-06T12:52:33;0.10;;;0.10;;
2464;SDS011;1244;54.326;10.074;2023-04-06T12:55:01;0.10;;;0.00;;
2464;SDS011;1244;54.326;10.074;2023-04-06T12:57:27;0.10;;;0.00;;
2464;SDS011;1244;54.326;10.074;2023-04-06T12:59:52;0.10;;;0.00;;
2464;SDS011;1244;54.326;10.074;2023-04-06T13:02:18;0.10;;;0.00;;
2464;SDS011;1244;54.326;10.074;2023-04-06T13:04:48;0.10;;;0.00;;
2464;SDS011;1244;54.326;10.074;2023-04-06T13:07:14;0.10;;;0.00;;
2464;SDS011;1244;54.326;10.074;2023-04-06T13:12:12;0.10;;;0.00;;
2464;SDS011;1244;54.326;10.074;2023-04-06T13:17:12;0.10;;;0.00;;
2464;SDS011;1244;54.326;10.074;2023-04-06T13:19:38;0.00;;;0.00;;
2464;SDS011;1244;54.326;10.074;2023-04-06T13:22:04;0.00;;;0.00;;
2464;SDS011;1244;54.326;10.074;2023-04-06T13:24:30;0.00;;;0.00;;
2464;SDS011;1244;54.326;10.074;2023-04-06T13:29:48;0.00;;;0.00;;
2464;SDS011;1244;54.326;10.074;2023-04-06T13:32:14;0.00;;;0.00;;
2464;SDS011;1244;54.326;10.074;2023-04-06T13:34:40;0.00;;;0.00;;
2464;SDS011;1244;54.326;10.074;2023-04-06T13:37:09;0.00;;;0.00;;
2464;SDS011;1244;54.326;10.074;2023-04-06T13:39:38;0.00;;;0.00;;
2464;SDS011;1244;54.326;10.074;2023-04-06T13:42:04;0.00;;;0.00;;
2464;SDS011;1244;54.326;10.074;2023-04-06T13:44:31;0.00;;;0.00;;
2464;SDS011;1244;54.326;10.074;2023-04-06T13:46:57;0.00;;;0.00;;
2464;SDS011;1244;54.326;10.074;2023-04-06T13:49:23;0.00;;;0.00;;
2464;SDS011;1244;54.326;10.074;2023-04-06T13:51:49;0.00;;;0.00;;
2464;SDS011;1244;54.326;10.074;2023-04-06T13:54:14;0.10;;;0.00;;
2464;SDS011;1244;54.326;10.074;2023-04-06T13:56:40;0.10;;;0.00;;
2464;SDS011;1244;54.326;10.074;2023-04-06T13:59:06;0.10;;;0.00;;
2464;SDS011;1244;54.326;10.074;2023-04-06T14:01:31;0.10;;;0.00;;
2464;SDS011;1244;54.326;10.074;2023-04-06T14:03:57;0.10;;;0.00;;
2464;SDS011;1244;54.326;10.074;2023-04-06T14:06:23;0.10;;;0.00;;
2464;SDS011;1244;54.326;10.074;2023-04-06T14:08:49;0.10;;;0.00;;
2464;SDS011;1244;54.326;10.074;2023-04-06T14:11:16;0.10;;;0.07;;
2464;SDS011;1244;54.326;10.074;2023-04-06T14:13:42;0.10;;;0.00;;
2464;SDS011;1244;54.326;10.074;2023-04-06T14:16:08;0.10;;;0.00;;
2464;SDS011;1244;54.326;10.074;2023-04-06T14:18:35;0.10;;;0.00;;
2464;SDS011;1244;54.326;10.074;2023-04-06T14:21:02;0.10;;;0.00;;
2464;SDS011;1244;54.326;10.074;2023-04-06T14:23:28;0.10;;;0.00;;
2464;SDS011;1244;54.326;10.074;2023-04-06T14:26:00;0.10;;;0.00;;
2464;SDS011;1244;54.326;10.074;2023-04-06T14:28:30;0.10;;;0.00;;
2464;SDS011;1244;54.326;10.074;2023-04-06T14:30:56;0.07;;;0.00;;
2464;SDS011;1244;54.326;10.074;2023-04-06T14:33:21;0.10;;;0.00;;
2464;SDS011;1244;54.326;10.074;2023-04-06T14:35:47;0.10;;;0.00;;
2464;SDS011;1244;54.326;10.074;2023-04-06T14:38:12;0.10;;;0.00;;
2464;SDS011;1244;54.326;10.074;2023-04-06T14:40:38;0.10;;;0.00;;
2464;SDS011;1244;54.326;10.074;2023-04-06T14:43:03;0.10;;;0.00;;
2464;SDS011;1244;54.326;10.074;2023-04-06T14:45:29;0.10;;;0.00;;
2464;SDS011;1244;54.326;10.074;2023-04-06T14:47:57;0.10;;;0.00;;
2464;SDS011;1244;54.326;10.074;2023-04-06T14:50:23;0.10;;;0.00;;
2464;SDS011;1244;54.326;10.074;2023-04-06T14:52:49;0.00;;;0.00;;
2464;SDS011;1244;54.326;10.074;2023-04-06T14:55:15;0.10;;;0.00;;
2464;SDS011;1244;54.326;10.074;2023-04-06T14:57:41;0.10;;;0.00;;
2464;SDS011;1244;54.326;10.074;2023-04-06T15:00:07;0.10;;;0.00;;
2464;SDS011;1244;54.326;10.074;2023-04-06T15:02:34;0.10;;;0.00;;
2464;SDS011;1244;54.326;10.074;2023-04-06T15:05:00;0.10;;;0.10;;
2464;SDS011;1244;54.326;10.074;2023-04-06T15:07:26;0.10;;;0.10;;
2464;SDS011;1244;54.326;10.074;2023-04-06T15:09:51;0.10;;;0.10;;
2464;SDS011;1244;54.326;10.074;2023-04-06T15:12:17;0.10;;;0.10;;
2464;SDS011;1244;54.326;10.074;2023-04-06T15:14:43;0.10;;;0.10;;
2464;SDS011;1244;54.326;10.074;2023-04-06T15:17:08;0.10;;;0.10;;
2464;SDS011;1244;54.326;10.074;2023-04-06T15:19:34;0.10;;;0.10;;
2464;SDS011;1244;54.326;10.074;2023-04-06T15:21:59;0.10;;;0.10;;